Time;durP1;ratioP1;P1;durP2;ratioP2;P2;SDS_P1;SDS_P2;PMS_P1;PMS_P2;Temp;Humidity;BMP_temperature;BMP_pressure;BME280_temperature;BME280_humidity;BME280_pressure;Samples;Min_cycle;Max_cycle;Signal;HPM_P1;HPM_P2
2023/08/22 00:00:41;;;;;;;5.45;4.90;;;21.80;99.90;;;;;;5029668;28;20115;-77
2023/08/22 00:03:07;;;;;;;5.55;4.88;;;21.70;99.90;;;;;;5035536;28;20144;-77
2023/08/22 00:05:33;;;;;;;5.20;4.80;;;21.60;99.90;;;;;;5030187;28;20572;-78
2023/08/22 00:08:05;;;;;;;9.90;5.50;;;21.60;99.90;;;;;;5036419;28;20041;-78
2023/08/22 00:10:31;;;;;;;6.25;5.20;;;21.60;99.90;;;;;;5035274;28;20044;-78
2023/08/22 00:12:57;;;;;;;7.65;5.60;;;21.60;99.90;;;;;;5037933;28;20036;-78
2023/08/22 00:15:23;;;;;;;6.60;5.28;;;21.60;99.90;;;;;;5013731;28;20505;-79
2023/08/22 00:17:49;;;;;;;6.53;5.25;;;21.60;99.90;;;;;;5032617;28;20036;-77
2023/08/22 00:20:15;;;;;;;5.88;5.38;;;21.60;99.90;;;;;;5036403;28;20033;-78
2023/08/22 00:22:41;;;;;;;9.00;5.40;;;21.60;99.90;;;;;;5030741;28;20383;-77
2023/08/22 00:25:07;;;;;;;5.93;5.40;;;21.60;99.90;;;;;;5033326;28;20041;-79
2023/08/22 00:27:36;;;;;;;6.18;5.57;;;21.60;99.90;;;;;;5036135;28;20032;-78
2023/08/22 00:30:03;;;;;;;5.72;5.22;;;21.70;99.90;;;;;;5032761;28;20435;-78
2023/08/22 00:32:29;;;;;;;5.88;5.30;;;21.70;99.90;;;;;;5030241;28;20029;-78
2023/08/22 00:34:55;;;;;;;8.38;4.97;;;21.60;99.90;;;;;;5033621;28;20037;-77
2023/08/22 00:37:21;;;;;;;5.50;5.00;;;21.50;99.90;;;;;;5030656;28;20040;-77
2023/08/22 00:39:46;;;;;;;5.13;4.68;;;21.50;99.90;;;;;;5025691;28;20552;-77
2023/08/22 00:42:12;;;;;;;5.32;4.90;;;21.50;99.90;;;;;;5029472;28;20029;-78
2023/08/22 00:44:38;;;;;;;7.13;4.95;;;21.40;99.90;;;;;;5028135;28;20064;-79
2023/08/22 00:47:04;;;;;;;5.00;4.60;;;21.40;99.90;;;;;;5029691;28;20040;-79
2023/08/22 00:49:31;;;;;;;5.45;4.95;;;21.40;99.90;;;;;;5028283;28;20033;-78
2023/08/22 00:51:59;;;;;;;7.82;5.80;;;21.40;99.90;;;;;;5032561;28;20059;-80
2023/08/22 00:54:26;;;;;;;7.22;4.78;;;21.40;99.90;;;;;;5031282;28;20029;-80
2023/08/22 00:56:53;;;;;;;6.10;5.13;;;21.40;99.90;;;;;;5033926;28;20445;-79
2023/08/22 00:59:19;;;;;;;9.70;5.70;;;21.40;99.90;;;;;;5033565;28;20064;-80
2023/08/22 01:01:45;;;;;;;7.18;4.78;;;21.30;99.90;;;;;;5025526;28;20090;-80
2023/08/22 01:04:11;;;;;;;6.13;5.28;;;21.30;99.90;;;;;;5027893;28;20037;-81
2023/08/22 01:07:11;;;;;;;7.35;5.55;;;21.30;99.90;;;;;;5029882;28;20061;-80
2023/08/22 01:09:58;;;;;;;5.60;5.07;;;21.30;99.90;;;;;;5025560;28;20049;-80
2023/08/22 01:12:51;;;;;;;5.50;5.00;;;21.30;99.90;;;;;;5034521;28;20044;-80
2023/08/22 01:15:35;;;;;;;5.13;4.72;;;21.30;99.90;;;;;;5031560;28;20198;-80
2023/08/22 01:18:05;;;;;;;6.28;5.28;;;21.30;99.90;;;;;;5035262;28;20056;-80
2023/08/22 01:20:31;;;;;;;7.10;4.88;;;21.30;99.90;;;;;;5031185;28;20164;-80
2023/08/22 01:22:57;;;;;;;4.85;4.45;;;21.20;99.90;;;;;;5027495;28;20020;-80
2023/08/22 01:25:29;;;;;;;5.65;5.15;;;21.10;99.90;;;;;;5034020;28;20048;-80
2023/08/22 01:28:08;;;;;;;6.22;5.35;;;21.00;99.90;;;;;;5029295;28;20028;-81
2023/08/22 01:30:51;;;;;;;5.13;4.63;;;21.00;99.90;;;;;;5029734;28;20052;-80
2023/08/22 01:33:31;;;;;;;6.93;4.53;;;21.00;99.90;;;;;;5024044;28;20037;-80
2023/08/22 01:35:56;;;;;;;5.72;4.75;;;21.10;99.90;;;;;;5035831;28;20036;-81
2023/08/22 01:38:25;;;;;;;5.15;4.65;;;21.10;99.90;;;;;;5032238;28;20578;-80
2023/08/22 01:40:52;;;;;;;5.55;4.70;;;21.10;99.90;;;;;;5036579;28;20060;-81
2023/08/22 01:43:21;;;;;;;6.03;5.35;;;21.10;99.90;;;;;;5033382;28;20033;-73
2023/08/22 01:45:48;;;;;;;5.28;4.78;;;21.10;99.90;;;;;;5028809;28;20112;-74
2023/08/22 01:48:13;;;;;;;5.03;4.63;;;21.10;99.90;;;;;;5034393;28;20025;-74
2023/08/22 01:50:39;;;;;;;6.78;5.80;;;21.10;99.90;;;;;;5027169;28;20032;-75
2023/08/22 01:53:05;;;;;;;5.57;5.07;;;21.00;99.90;;;;;;5021135;28;20508;-75
2023/08/22 01:55:30;;;;;;;5.82;5.28;;;21.00;99.90;;;;;;5024722;28;20088;-75
2023/08/22 01:57:56;;;;;;;6.15;5.13;;;21.00;99.90;;;;;;5028143;28;20049;-75
2023/08/22 02:00:22;;;;;;;6.82;5.38;;;21.00;99.90;;;;;;5026360;28;20048;-75
2023/08/22 02:02:47;;;;;;;6.68;5.22;;;21.00;99.90;;;;;;5036482;28;20040;-75
2023/08/22 02:05:13;;;;;;;5.50;5.00;;;21.00;99.90;;;;;;5031508;28;20053;-76
2023/08/22 02:07:39;;;;;;;5.07;4.57;;;21.00;99.90;;;;;;5029911;28;20037;-76
2023/08/22 02:10:04;;;;;;;6.60;4.50;;;21.00;99.90;;;;;;5029609;28;20058;-76
2023/08/22 02:12:31;;;;;;;6.40;4.88;;;21.00;99.90;;;;;;5031122;28;20041;-75
2023/08/22 02:14:57;;;;;;;4.97;4.47;;;21.00;99.90;;;;;;5031215;28;20323;-76
2023/08/22 02:17:22;;;;;;;4.95;4.55;;;20.90;99.90;;;;;;5031121;28;20744;-76
2023/08/22 02:19:48;;;;;;;5.05;4.65;;;20.90;99.90;;;;;;5026072;28;20666;-76
2023/08/22 02:22:14;;;;;;;8.65;4.90;;;20.80;99.90;;;;;;5023536;28;20029;-76
2023/08/22 02:24:40;;;;;;;5.70;5.20;;;20.80;99.90;;;;;;5024921;28;20030;-77
2023/08/22 02:27:05;;;;;;;7.65;4.72;;;20.70;99.90;;;;;;5019386;28;20044;-77
2023/08/22 02:29:32;;;;;;;5.45;5.05;;;20.70;99.90;;;;;;5025773;28;20028;-77
2023/08/22 02:31:58;;;;;;;5.18;4.68;;;20.80;99.90;;;;;;5021956;28;20077;-76
2023/08/22 02:34:25;;;;;;;5.32;4.82;;;20.80;99.90;;;;;;5029018;28;20084;-76
2023/08/22 02:36:51;;;;;;;8.60;5.22;;;20.80;99.90;;;;;;5025429;28;20242;-76
2023/08/22 02:39:17;;;;;;;6.32;5.20;;;20.70;99.90;;;;;;5029383;28;20112;-76
2023/08/22 02:41:42;;;;;;;5.10;4.70;;;20.70;99.90;;;;;;5022857;28;20363;-76
2023/08/22 02:44:08;;;;;;;5.63;4.88;;;20.70;99.90;;;;;;5030508;28;20504;-77
2023/08/22 02:46:34;;;;;;;5.43;5.03;;;20.70;99.90;;;;;;5023302;28;20437;-77
2023/08/22 02:49:00;;;;;;;6.38;5.03;;;20.60;99.90;;;;;;5024290;28;20033;-77
2023/08/22 02:51:26;;;;;;;6.95;4.45;;;20.70;99.90;;;;;;5008834;28;20040;-77
2023/08/22 02:53:52;;;;;;;5.32;4.78;;;20.70;99.90;;;;;;5029408;28;20581;-77
2023/08/22 02:56:17;;;;;;;5.55;4.88;;;20.70;99.90;;;;;;5028320;28;20041;-77
2023/08/22 02:58:43;;;;;;;5.20;4.80;;;20.70;99.90;;;;;;5030289;28;21297;-79
2023/08/22 03:01:09;;;;;;;7.68;5.10;;;20.70;99.90;;;;;;5039880;28;20033;-80
2023/08/22 03:03:35;;;;;;;5.85;5.25;;;20.70;99.90;;;;;;5036694;28;20029;-80
2023/08/22 03:06:00;;;;;;;5.28;4.78;;;20.70;99.90;;;;;;5035758;28;20036;-81
2023/08/22 03:08:27;;;;;;;5.00;4.50;;;20.70;99.90;;;;;;5039820;28;20097;-81
2023/08/22 03:10:52;;;;;;;6.00;5.40;;;20.70;99.90;;;;;;5037695;28;20118;-81
2023/08/22 03:13:18;;;;;;;6.18;5.63;;;20.70;99.90;;;;;;5033746;28;20120;-81
2023/08/22 03:15:45;;;;;;;6.80;4.75;;;20.80;99.90;;;;;;5029525;28;21083;-81
2023/08/22 03:18:11;;;;;;;5.47;5.07;;;20.70;99.90;;;;;;5028697;28;20660;-80
2023/08/22 03:20:36;;;;;;;5.07;4.68;;;20.70;99.90;;;;;;5032205;28;20566;-80
2023/08/22 03:23:04;;;;;;;4.85;4.25;;;20.60;99.90;;;;;;5031298;28;20034;-81
2023/08/22 03:25:30;;;;;;;5.60;4.68;;;20.60;99.90;;;;;;5019744;28;20064;-80
2023/08/22 03:27:56;;;;;;;4.93;4.43;;;20.40;99.90;;;;;;5035926;28;20128;-81
2023/08/22 03:30:21;;;;;;;5.60;5.10;;;20.30;99.90;;;;;;5032761;28;20041;-80
2023/08/22 03:32:47;;;;;;;5.00;4.57;;;20.30;99.90;;;;;;5035432;28;20036;-79
2023/08/22 03:35:13;;;;;;;5.63;5.13;;;20.20;99.90;;;;;;5016375;28;20059;-81
2023/08/22 03:37:40;;;;;;;5.30;4.80;;;20.30;99.90;;;;;;5026367;28;20021;-81
2023/08/22 03:40:06;;;;;;;6.45;4.95;;;20.20;99.90;;;;;;5033931;28;20025;-81
2023/08/22 03:42:32;;;;;;;5.50;4.90;;;20.20;99.90;;;;;;5017741;28;20025;-80
2023/08/22 03:44:58;;;;;;;7.88;5.40;;;20.20;99.90;;;;;;5035611;28;20033;-80
2023/08/22 03:47:23;;;;;;;5.50;5.10;;;20.30;99.90;;;;;;5033624;28;20036;-82
2023/08/22 03:49:49;;;;;;;5.82;5.32;;;20.30;99.90;;;;;;5033926;28;20555;-81
2023/08/22 03:52:15;;;;;;;21.15;12.43;;;20.30;99.90;;;;;;5030815;28;20040;-82
2023/08/22 03:54:40;;;;;;;7.70;5.70;;;20.30;99.90;;;;;;5031940;28;20533;-81
2023/08/22 03:57:06;;;;;;;8.50;5.40;;;20.40;99.90;;;;;;5034591;28;20410;-81
2023/08/22 03:59:32;;;;;;;12.70;10.32;;;20.40;99.90;;;;;;5038297;28;20060;-81
2023/08/22 04:01:57;;;;;;;9.88;8.85;;;20.40;99.90;;;;;;5015839;28;20967;-80
2023/08/22 04:04:23;;;;;;;7.65;6.28;;;20.40;99.90;;;;;;5034478;28;20034;-80
2023/08/22 04:06:48;;;;;;;10.60;7.50;;;20.40;99.90;;;;;;5034724;28;20029;-80
2023/08/22 04:09:14;;;;;;;7.70;6.80;;;20.40;99.90;;;;;;5037398;28;20585;-80
2023/08/22 04:11:42;;;;;;;7.20;6.50;;;20.40;99.90;;;;;;5033417;28;20096;-79
2023/08/22 04:14:08;;;;;;;9.05;6.38;;;20.40;99.90;;;;;;5036788;28;20028;-80
2023/08/22 04:16:34;;;;;;;8.00;6.07;;;20.40;99.90;;;;;;5028898;28;20029;-80
2023/08/22 04:18:59;;;;;;;6.03;5.53;;;20.40;99.90;;;;;;5032357;28;20819;-80
2023/08/22 04:21:25;;;;;;;7.55;5.60;;;20.50;99.90;;;;;;5030260;28;20382;-80
2023/08/22 04:23:50;;;;;;;5.25;4.85;;;20.40;99.90;;;;;;5018492;28;20559;-80
2023/08/22 04:26:16;;;;;;;5.20;4.70;;;20.50;99.90;;;;;;5034008;28;20048;-80
2023/08/22 04:28:41;;;;;;;6.40;4.50;;;20.40;99.90;;;;;;5033927;28;20034;-83
2023/08/22 04:31:07;;;;;;;6.78;4.88;;;20.40;99.90;;;;;;5036319;28;20486;-83
2023/08/22 04:33:33;;;;;;;5.50;4.97;;;20.40;99.90;;;;;;5026472;28;20029;-82
2023/08/22 04:35:58;;;;;;;5.63;5.13;;;20.30;99.90;;;;;;5034865;28;20041;-79
2023/08/22 04:38:24;;;;;;;6.85;5.45;;;20.30;99.90;;;;;;5033658;28;20441;-80
2023/08/22 04:40:49;;;;;;;6.57;5.70;;;20.40;99.90;;;;;;5018127;28;20842;-83
2023/08/22 04:43:15;;;;;;;6.05;5.55;;;20.40;99.90;;;;;;5030883;28;20021;-83
2023/08/22 04:45:41;;;;;;;5.97;5.38;;;20.40;99.90;;;;;;5034088;28;20021;-82
2023/08/22 04:48:07;;;;;;;7.25;5.05;;;20.50;99.90;;;;;;5030692;28;20401;-80
2023/08/22 04:50:33;;;;;;;5.72;5.22;;;20.60;99.90;;;;;;5034754;28;20067;-79
2023/08/22 04:52:59;;;;;;;5.57;5.18;;;20.70;99.90;;;;;;5035235;28;20125;-80
2023/08/22 04:55:24;;;;;;;7.75;5.70;;;20.80;99.90;;;;;;5028400;28;20471;-81
2023/08/22 04:57:50;;;;;;;7.00;5.07;;;20.90;99.90;;;;;;5034090;28;20033;-81
2023/08/22 05:00:16;;;;;;;6.30;5.18;;;21.00;99.90;;;;;;5021302;28;20044;-79
2023/08/22 05:02:42;;;;;;;9.55;5.25;;;21.10;99.90;;;;;;5027986;28;20033;-81
2023/08/22 05:05:10;;;;;;;8.25;5.55;;;21.20;99.90;;;;;;5029213;28;20079;-80
2023/08/22 05:07:36;;;;;;;6.72;5.47;;;21.20;99.90;;;;;;5031130;28;20021;-81
2023/08/22 05:10:02;;;;;;;6.40;5.85;;;21.30;99.90;;;;;;5034899;28;20082;-82
2023/08/22 05:12:28;;;;;;;8.45;6.00;;;21.50;99.90;;;;;;5025271;28;20029;-78
2023/08/22 05:14:56;;;;;;;11.82;6.15;;;21.60;99.90;;;;;;5030291;28;20080;-76
2023/08/22 05:17:22;;;;;;;8.25;5.50;;;21.70;99.90;;;;;;5032164;28;20025;-82
2023/08/22 05:19:48;;;;;;;10.77;5.28;;;21.80;99.90;;;;;;5028613;28;20044;-80
2023/08/22 05:22:13;;;;;;;6.18;5.53;;;21.90;99.90;;;;;;5032585;28;20032;-79
2023/08/22 05:24:39;;;;;;;8.75;6.15;;;22.00;99.90;;;;;;5032919;28;20073;-78
2023/08/22 05:27:05;;;;;;;6.20;5.60;;;22.10;99.90;;;;;;5031326;28;20261;-79
2023/08/22 05:29:30;;;;;;;9.00;6.05;;;22.20;99.90;;;;;;5025112;28;20037;-80
2023/08/22 05:31:56;;;;;;;8.90;6.10;;;22.30;99.90;;;;;;5030335;28;20386;-79
2023/08/22 05:34:21;;;;;;;6.93;6.32;;;22.40;99.90;;;;;;5015435;28;20689;-81
2023/08/22 05:36:47;;;;;;;7.05;6.45;;;22.50;99.90;;;;;;5028701;28;20040;-81
2023/08/22 05:39:12;;;;;;;9.80;7.70;;;22.60;99.90;;;;;;5016429;28;20537;-79
2023/08/22 05:41:38;;;;;;;10.95;7.90;;;22.70;99.90;;;;;;5030303;28;20458;-81
2023/08/22 05:44:04;;;;;;;7.78;7.00;;;22.80;99.90;;;;;;5033384;28;20033;-80
2023/08/22 05:46:29;;;;;;;9.88;7.88;;;22.80;99.90;;;;;;5028291;28;20024;-80
2023/08/22 05:48:55;;;;;;;9.70;6.82;;;23.00;99.90;;;;;;5032179;28;20832;-80
2023/08/22 05:51:21;;;;;;;9.43;7.25;;;23.10;99.90;;;;;;5028897;28;20505;-80
2023/08/22 05:53:47;;;;;;;8.88;7.97;;;23.20;99.90;;;;;;5032039;28;20021;-81
2023/08/22 05:56:12;;;;;;;11.15;8.02;;;23.30;99.90;;;;;;5015952;28;20474;-81
2023/08/22 05:58:38;;;;;;;9.25;7.20;;;23.40;99.90;;;;;;5025092;28;20767;-81
2023/08/22 06:01:10;;;;;;;8.50;7.55;;;23.60;99.90;;;;;;5030681;28;20424;-81
2023/08/22 06:03:37;;;;;;;8.10;7.47;;;23.70;99.90;;;;;;5029146;28;20136;-80
2023/08/22 06:06:04;;;;;;;8.25;7.45;;;23.80;99.90;;;;;;5028521;28;20061;-81
2023/08/22 06:08:30;;;;;;;7.63;6.88;;;23.90;99.90;;;;;;5021166;28;20037;-80
2023/08/22 06:10:56;;;;;;;8.00;7.03;;;24.10;99.90;;;;;;5028608;28;20502;-80
2023/08/22 06:13:22;;;;;;;7.40;6.63;;;24.20;99.90;;;;;;5032805;28;20095;-81
2023/08/22 06:15:47;;;;;;;8.15;7.45;;;24.30;99.90;;;;;;5023958;28;20481;-80
2023/08/22 06:18:13;;;;;;;8.35;7.55;;;24.40;99.90;;;;;;5024576;28;20547;-80
2023/08/22 06:20:39;;;;;;;17.75;7.65;;;24.60;99.90;;;;;;5027507;28;20043;-80
2023/08/22 06:23:05;;;;;;;7.90;7.20;;;24.60;99.90;;;;;;5025916;28;20037;-81
2023/08/22 06:25:31;;;;;;;14.27;7.70;;;24.50;99.90;;;;;;5027102;28;20033;-81
2023/08/22 06:27:57;;;;;;;13.95;7.70;;;24.60;99.90;;;;;;5031388;28;20132;-81
2023/08/22 06:30:22;;;;;;;9.00;7.07;;;24.70;99.90;;;;;;5029211;28;20089;-81
2023/08/22 06:32:48;;;;;;;13.52;7.75;;;24.80;99.90;;;;;;5020462;28;20462;-81
2023/08/22 06:35:14;;;;;;;7.70;7.00;;;24.90;99.90;;;;;;5033175;28;20041;-81
2023/08/22 06:37:39;;;;;;;10.07;7.22;;;25.00;99.90;;;;;;5004260;28;20029;-82
2023/08/22 06:40:06;;;;;;;8.95;7.30;;;25.10;99.90;;;;;;5037090;28;20029;-80
2023/08/22 06:42:31;;;;;;;8.65;7.57;;;25.20;99.90;;;;;;5035501;28;20820;-80
2023/08/22 06:44:57;;;;;;;11.70;7.32;;;25.30;99.90;;;;;;5032719;28;20026;-81
2023/08/22 06:47:23;;;;;;;9.43;7.45;;;25.40;99.90;;;;;;5022499;28;20029;-80
2023/08/22 06:49:49;;;;;;;8.05;7.15;;;25.50;99.90;;;;;;5032565;28;20778;-80
2023/08/22 06:52:15;;;;;;;7.63;6.88;;;25.50;99.90;;;;;;5025835;28;20080;-80
2023/08/22 06:54:40;;;;;;;8.55;7.72;;;25.60;99.90;;;;;;5025795;28;20030;-80
2023/08/22 06:57:06;;;;;;;8.15;7.30;;;25.60;99.90;;;;;;5022210;28;20122;-80
2023/08/22 06:59:32;;;;;;;9.48;6.95;;;25.60;99.90;;;;;;5027592;28;20675;-80
2023/08/22 07:01:58;;;;;;;7.78;7.00;;;25.70;99.90;;;;;;5033967;28;20033;-81
2023/08/22 07:04:24;;;;;;;8.77;7.32;;;25.90;99.90;;;;;;5027139;28;20480;-81
2023/08/22 07:06:50;;;;;;;8.10;7.30;;;26.00;99.90;;;;;;5035493;28;20052;-81
2023/08/22 07:09:15;;;;;;;9.15;7.72;;;26.10;99.90;;;;;;5034962;28;20486;-81
2023/08/22 07:11:42;;;;;;;7.22;6.53;;;26.20;99.90;;;;;;5038906;28;21537;-81
2023/08/22 07:14:07;;;;;;;7.50;6.88;;;26.30;99.90;;;;;;5038803;28;20025;-81
2023/08/22 07:16:33;;;;;;;7.90;7.30;;;26.40;99.90;;;;;;5037675;28;20021;-81
2023/08/22 07:18:59;;;;;;;8.73;7.55;;;26.60;99.90;;;;;;5039173;28;20036;-81
2023/08/22 07:21:25;;;;;;;7.80;7.07;;;26.70;99.90;;;;;;5036778;28;20832;-81
2023/08/22 07:23:51;;;;;;;10.00;7.43;;;26.80;99.90;;;;;;5039811;28;20033;-81
2023/08/22 07:26:16;;;;;;;7.57;6.88;;;26.90;99.90;;;;;;5034929;28;20025;-81
2023/08/22 07:28:42;;;;;;;7.72;7.07;;;27.00;99.90;;;;;;5035083;28;20068;-80
2023/08/22 07:31:08;;;;;;;7.95;7.30;;;27.20;99.90;;;;;;5021115;28;20055;-81
2023/08/22 07:33:33;;;;;;;14.23;7.28;;;27.30;99.90;;;;;;5040145;28;20100;-81
2023/08/22 07:36:00;;;;;;;7.43;6.68;;;27.40;99.90;;;;;;5017576;28;20064;-80
2023/08/22 07:38:26;;;;;;;15.93;7.72;;;27.40;99.90;;;;;;5027471;28;20029;-82
2023/08/22 07:40:51;;;;;;;9.52;6.60;;;27.30;99.90;;;;;;5032269;28;20039;-81
2023/08/22 07:43:17;;;;;;;7.55;6.22;;;27.30;99.90;;;;;;5009590;28;20533;-80
2023/08/22 07:45:43;;;;;;;8.70;6.10;;;27.50;99.90;;;;;;5029554;28;20044;-80
2023/08/22 07:48:09;;;;;;;6.53;5.97;;;27.50;99.90;;;;;;5015823;28;20126;-80
2023/08/22 07:50:35;;;;;;;6.32;5.82;;;27.60;99.90;;;;;;5021173;28;20114;-80
2023/08/22 07:53:01;;;;;;;7.40;6.50;;;27.70;99.90;;;;;;4993003;28;20178;-80
2023/08/22 07:55:26;;;;;;;6.60;6.00;;;27.90;99.90;;;;;;5013842;28;20140;-80
2023/08/22 07:57:53;;;;;;;7.78;5.63;;;28.00;99.90;;;;;;5027786;28;20773;-82
2023/08/22 08:00:19;;;;;;;7.00;6.30;;;28.10;99.90;;;;;;5035343;28;20690;-81
2023/08/22 08:02:45;;;;;;;6.63;6.13;;;28.20;99.90;;;;;;5036093;28;20024;-80
2023/08/22 08:05:12;;;;;;;6.78;6.18;;;28.30;99.90;;;;;;5039446;28;20564;-81
2023/08/22 08:07:38;;;;;;;6.50;5.90;;;28.40;99.90;;;;;;5034172;28;20018;-81
2023/08/22 08:10:04;;;;;;;7.20;6.50;;;28.40;99.90;;;;;;5016693;28;20028;-80
2023/08/22 08:12:30;;;;;;;6.72;6.13;;;28.40;99.90;;;;;;5032572;28;20502;-81
2023/08/22 08:14:56;;;;;;;10.55;6.53;;;28.40;99.90;;;;;;5035028;28;20049;-81
2023/08/22 08:17:22;;;;;;;7.25;6.50;;;28.20;99.90;;;;;;5032899;28;20478;-81
2023/08/22 08:19:48;;;;;;;6.88;6.28;;;28.20;99.90;;;;;;5027583;28;20075;-79
2023/08/22 08:22:14;;;;;;;9.45;6.88;;;28.20;99.90;;;;;;5031942;28;20131;-82
2023/08/22 08:24:39;;;;;;;7.35;6.65;;;28.30;99.90;;;;;;5027669;28;20493;-81
2023/08/22 08:27:05;;;;;;;7.03;6.32;;;28.50;99.90;;;;;;5035710;28;20029;-80
2023/08/22 08:29:32;;;;;;;6.75;6.15;;;28.50;99.90;;;;;;5038861;28;20032;-83
2023/08/22 08:31:58;;;;;;;6.50;6.00;;;28.50;99.90;;;;;;5036172;28;20037;-84
2023/08/22 08:34:24;;;;;;;9.82;7.20;;;28.50;99.90;;;;;;5034164;28;20037;-82
2023/08/22 08:36:50;;;;;;;6.88;6.18;;;28.50;99.90;;;;;;5033226;28;20573;-83
2023/08/22 08:39:17;;;;;;;8.13;6.40;;;28.60;99.90;;;;;;5033637;28;20078;-83
2023/08/22 08:42:13;;;;;;;9.02;6.38;;;28.70;99.90;;;;;;5035690;28;20037;-82
2023/08/22 08:44:40;;;;;;;7.97;6.60;;;28.80;99.90;;;;;;5032243;28;20052;-83
2023/08/22 08:47:10;;;;;;;7.18;6.32;;;28.80;99.90;;;;;;5024312;28;20028;-83
2023/08/22 08:49:36;;;;;;;7.40;6.70;;;28.80;99.90;;;;;;5026580;28;20065;-83
2023/08/22 08:52:03;;;;;;;7.30;6.75;;;29.00;99.90;;;;;;5033605;28;20047;-83
2023/08/22 08:54:29;;;;;;;7.80;6.85;;;29.00;99.90;;;;;;5030745;28;20029;-83
2023/08/22 08:56:55;;;;;;;8.23;6.88;;;29.10;99.90;;;;;;5034494;28;20033;-83
2023/08/22 08:59:21;;;;;;;6.95;6.43;;;29.10;99.90;;;;;;5034366;28;20048;-85
2023/08/22 09:01:50;;;;;;;7.07;6.47;;;29.20;99.90;;;;;;5035905;28;20029;-82
2023/08/22 09:04:16;;;;;;;6.95;6.25;;;29.20;99.90;;;;;;5032079;28;20434;-83
2023/08/22 09:06:47;;;;;;;9.13;5.68;;;29.20;99.90;;;;;;5033232;28;20029;-83
2023/08/22 09:09:14;;;;;;;6.03;5.53;;;29.30;99.90;;;;;;5027326;28;20095;-84
2023/08/22 09:11:46;;;;;;;7.15;6.45;;;29.40;99.90;;;;;;5034421;28;20175;-82
2023/08/22 09:14:12;;;;;;;;;;;29.50;99.90;;;;;;5032227;28;20091;-82
2023/08/22 09:16:38;;;;;;;6.40;5.80;;;29.60;99.90;;;;;;5022129;28;20353;-81
2023/08/22 09:19:06;;;;;;;6.55;5.90;;;29.70;99.90;;;;;;5029062;28;20091;-83
2023/08/22 09:21:31;;;;;;;5.95;5.40;;;29.80;99.90;;;;;;5034190;28;20096;-83
2023/08/22 09:24:08;;;;;;;6.18;5.20;;;29.90;99.90;;;;;;5034944;28;20543;-84
2023/08/22 09:26:34;;;;;;;6.38;5.38;;;29.90;99.90;;;;;;5030839;28;20051;-84
2023/08/22 09:29:07;;;;;;;7.88;5.38;;;30.00;99.90;;;;;;5031638;28;20576;-83
2023/08/22 09:31:34;;;;;;;5.55;5.05;;;30.10;99.90;;;;;;5031814;28;20029;-77
2023/08/22 09:34:07;;;;;;;6.15;5.55;;;30.30;99.90;;;;;;5031489;28;20037;-76
2023/08/22 09:36:33;;;;;;;21.30;7.05;;;30.40;99.90;;;;;;5024213;28;20047;-79
2023/08/22 09:38:58;;;;;;;7.70;5.65;;;30.40;99.90;;;;;;5027427;28;20028;-79
2023/08/22 09:41:26;;;;;;;5.65;5.15;;;30.40;99.90;;;;;;5031301;28;20041;-78
2023/08/22 09:43:54;;;;;;;5.18;4.72;;;30.40;99.90;;;;;;5022674;28;20493;-79
2023/08/22 09:46:23;;;;;;;6.75;5.25;;;30.30;99.90;;;;;;5037969;28;20024;-77
2023/08/22 09:48:50;;;;;;;9.23;5.60;;;30.30;99.90;;;;;;5034152;28;20036;-81
2023/08/22 09:51:20;;;;;;;6.78;5.10;;;30.40;99.90;;;;;;5031819;28;20449;-79
2023/08/22 09:53:50;;;;;;;6.28;5.65;;;30.30;99.90;;;;;;5027480;28;20035;-79
2023/08/22 09:56:20;;;;;;;4.93;4.43;;;30.40;99.90;;;;;;5029393;28;20052;-78
2023/08/22 09:58:46;;;;;;;5.50;4.72;;;30.50;99.90;;;;;;5028430;28;20677;-78
2023/08/22 10:01:18;;;;;;;5.45;5.05;;;30.60;99.90;;;;;;5031489;28;20033;-77
2023/08/22 10:03:45;;;;;;;6.45;4.93;;;30.60;99.90;;;;;;5029263;28;20105;-79
2023/08/22 10:06:12;;;;;;;11.60;5.10;;;30.70;99.90;;;;;;5032886;28;20064;-78
2023/08/22 10:08:39;;;;;;;8.40;5.30;;;30.80;99.90;;;;;;5024754;28;20025;-78
2023/08/22 10:11:08;;;;;;;5.20;4.70;;;30.90;99.90;;;;;;5030065;28;20539;-80
2023/08/22 10:13:37;;;;;;;5.70;5.20;;;31.00;99.90;;;;;;5028721;28;20111;-79
2023/08/22 10:16:03;;;;;;;10.30;5.28;;;31.10;99.90;;;;;;5030599;28;20049;-79
2023/08/22 10:18:29;;;;;;;5.78;5.07;;;31.10;99.90;;;;;;5010882;28;20102;-78
2023/08/22 10:20:55;;;;;;;6.63;5.47;;;31.20;99.90;;;;;;5021779;28;20102;-77
2023/08/22 10:23:59;;;;;;;7.30;5.72;;;31.30;99.90;;;;;;5023091;28;20040;-78
2023/08/22 10:26:47;;;;;;;9.55;6.28;;;31.40;99.90;;;;;;4956048;28;20092;-79
2023/08/22 10:29:17;;;;;;;5.68;5.18;;;31.40;99.90;;;;;;4968747;28;20141;-78
2023/08/22 10:32:01;;;;;;;6.18;5.40;;;31.50;99.90;;;;;;5009118;28;20087;-78
2023/08/22 10:34:40;;;;;;;5.47;5.00;;;31.60;99.90;;;;;;5032162;28;20553;-79
2023/08/22 10:37:20;;;;;;;5.50;5.10;;;31.60;99.90;;;;;;5035675;28;20130;-78
2023/08/22 10:39:49;;;;;;;6.28;5.13;;;31.70;99.90;;;;;;5033839;28;20444;-78
2023/08/22 10:42:22;;;;;;;6.70;5.03;;;31.70;99.90;;;;;;5037274;28;20135;-78
2023/08/22 10:44:51;;;;;;;5.88;5.38;;;31.60;99.90;;;;;;5031536;28;20375;-78
2023/08/22 10:47:28;;;;;;;5.40;5.00;;;31.60;99.90;;;;;;5031232;28;20021;-78
2023/08/22 10:49:59;;;;;;;5.97;5.47;;;31.70;99.90;;;;;;5031451;28;20382;-78
2023/08/22 10:52:35;;;;;;;5.47;5.03;;;31.80;99.90;;;;;;5038178;28;20044;-78
2023/08/22 10:55:12;;;;;;;5.88;5.20;;;31.70;99.90;;;;;;5034677;28;20602;-79
2023/08/22 10:57:44;;;;;;;5.93;5.43;;;31.80;99.90;;;;;;5036142;28;20495;-77
2023/08/22 11:00:19;;;;;;;5.93;5.47;;;31.70;99.90;;;;;;5029656;28;20063;-77
2023/08/22 11:02:47;;;;;;;5.30;4.90;;;31.80;99.90;;;;;;5029359;28;20029;-77
2023/08/22 11:05:15;;;;;;;5.85;5.35;;;31.90;99.90;;;;;;5020143;28;20562;-78
2023/08/22 11:07:42;;;;;;;6.22;5.72;;;31.90;99.90;;;;;;5028117;28;20125;-78
2023/08/22 11:10:13;;;;;;;5.57;5.07;;;31.80;99.90;;;;;;5036182;28;20029;-77
2023/08/22 11:12:39;;;;;;;6.17;5.50;;;31.90;99.90;;;;;;5019376;28;20128;-79
2023/08/22 11:15:05;;;;;;;5.82;5.43;;;31.90;99.90;;;;;;5039648;28;20290;-79
2023/08/22 11:17:31;;;;;;;5.88;5.30;;;32.00;99.90;;;;;;5036735;28;20040;-78
2023/08/22 11:19:59;;;;;;;5.72;5.20;;;32.20;99.90;;;;;;5039410;28;20025;-80
2023/08/22 11:22:25;;;;;;;9.18;5.78;;;32.20;99.90;;;;;;5034473;28;20104;-78
2023/08/22 11:24:51;;;;;;;5.53;5.13;;;32.20;99.90;;;;;;5038935;28;20112;-78
2023/08/22 11:27:18;;;;;;;5.65;5.25;;;32.20;99.90;;;;;;5034779;28;20041;-78
2023/08/22 11:29:49;;;;;;;6.35;5.45;;;32.20;99.90;;;;;;5033841;28;20026;-80
2023/08/22 11:32:23;;;;;;;6.18;5.15;;;32.20;99.90;;;;;;5036955;28;20037;-80
2023/08/22 11:34:51;;;;;;;5.90;5.50;;;32.20;99.90;;;;;;5032236;28;20112;-80
2023/08/22 11:37:17;;;;;;;6.05;5.43;;;32.20;99.90;;;;;;5035392;28;20267;-78
2023/08/22 11:39:50;;;;;;;6.13;5.25;;;32.30;99.90;;;;;;5035023;28;20052;-78
2023/08/22 11:42:17;;;;;;;5.60;5.07;;;32.40;99.90;;;;;;5038803;28;20366;-81
2023/08/22 11:44:52;;;;;;;6.13;4.88;;;32.50;99.90;;;;;;5038136;28;20027;-79
2023/08/22 11:47:18;;;;;;;4.95;4.57;;;32.50;99.90;;;;;;5037273;28;20095;-79
2023/08/22 11:49:43;;;;;;;5.50;5.00;;;32.50;99.90;;;;;;5035147;28;20025;-80
2023/08/22 11:52:09;;;;;;;5.32;4.85;;;32.50;99.90;;;;;;5042390;28;20429;-80
2023/08/22 11:54:43;;;;;;;5.45;4.95;;;32.60;99.90;;;;;;5036912;28;20079;-80
2023/08/22 11:57:09;;;;;;;5.53;4.80;;;32.80;99.90;;;;;;5031647;28;20094;-80
2023/08/22 11:59:34;;;;;;;7.35;4.93;;;32.90;99.90;;;;;;5035162;28;20444;-74
2023/08/22 12:02:01;;;;;;;8.13;4.97;;;33.00;99.90;;;;;;5033534;28;20139;-80
2023/08/22 12:04:43;;;;;;;8.05;4.97;;;33.10;99.90;;;;;;5030975;28;20152;-82
2023/08/22 12:07:09;;;;;;;7.15;4.65;;;33.20;99.00;;;;;;5025306;28;20045;-81
2023/08/22 12:09:35;;;;;;;6.22;5.72;;;33.20;99.90;;;;;;5028678;28;20490;-83
2023/08/22 12:12:10;;;;;;;5.53;5.00;;;33.20;99.00;;;;;;5022535;28;20028;-80
2023/08/22 12:14:36;;;;;;;4.97;4.57;;;33.20;99.10;;;;;;5027834;28;20029;-79
2023/08/22 12:17:01;;;;;;;4.80;4.35;;;33.10;97.70;;;;;;5025463;28;20512;-81
2023/08/22 12:19:27;;;;;;;5.03;4.70;;;33.00;97.30;;;;;;5028244;28;20108;-81
2023/08/22 12:21:53;;;;;;;4.65;4.35;;;33.00;97.40;;;;;;5028330;28;20056;-81
2023/08/22 12:24:18;;;;;;;6.32;4.53;;;33.10;98.00;;;;;;5015326;28;20878;-81
2023/08/22 12:26:44;;;;;;;4.43;4.03;;;33.20;99.30;;;;;;5028034;28;20098;-81
2023/08/22 12:29:09;;;;;;;5.10;4.70;;;33.30;98.20;;;;;;5032325;28;20025;-80
2023/08/22 12:31:35;;;;;;;4.90;4.50;;;33.30;98.00;;;;;;5031541;28;20020;-79
2023/08/22 12:34:01;;;;;;;4.75;4.30;;;33.40;97.80;;;;;;5033643;28;20411;-80
2023/08/22 12:36:26;;;;;;;4.30;4.00;;;33.40;96.40;;;;;;5034903;28;20041;-80
2023/08/22 12:38:52;;;;;;;5.45;4.80;;;33.40;96.70;;;;;;5019202;28;20652;-81
2023/08/22 12:41:17;;;;;;;7.15;4.93;;;33.40;96.90;;;;;;5034908;28;20610;-80
2023/08/22 12:43:43;;;;;;;4.72;4.43;;;33.40;96.70;;;;;;5041297;28;20128;-81
2023/08/22 12:46:09;;;;;;;6.18;4.85;;;33.40;96.80;;;;;;5036937;28;20159;-81